Time;durP1;ratioP1;P1;durP2;ratioP2;P2;SDS_P1;SDS_P2;PMS_P1;PMS_P2;Temp;Humidity;BMP_temperature;BMP_pressure;BME280_temperature;BME280_humidity;BME280_pressure;Samples;Min_cycle;Max_cycle;Signal;HPM_P1;HPM_P2
2023/03/03 00:01:25;;;;;;;20.02;9.38;;;5.40;49.30;;;;;;2333249;54;21770;-74
2023/03/03 00:03:52;;;;;;;22.95;10.70;;;5.40;49.40;;;;;;2333664;54;21432;-73
2023/03/03 00:06:18;;;;;;;20.45;9.82;;;5.30;49.30;;;;;;2334375;54;20901;-73
2023/03/03 00:08:44;;;;;;;19.25;9.52;;;5.30;49.40;;;;;;2333982;54;21044;-74
2023/03/03 00:11:10;;;;;;;22.52;10.48;;;5.30;49.40;;;;;;2334297;54;21023;-73
2023/03/03 00:13:46;;;;;;;21.37;10.20;;;5.20;49.30;;;;;;2333552;54;21410;-74
2023/03/03 00:16:28;;;;;;;24.52;11.05;;;5.20;49.50;;;;;;2468046;53;21799;-74
2023/03/03 00:18:54;;;;;;;21.52;10.38;;;5.20;49.70;;;;;;2387141;53;20944;-73
2023/03/03 00:21:31;;;;;;;21.48;10.02;;;5.10;49.50;;;;;;2334184;54;20969;-74
2023/03/03 00:24:18;;;;;;;21.05;10.00;;;5.10;49.80;;;;;;2382162;53;21417;-74
2023/03/03 00:26:55;;;;;;;25.23;10.35;;;5.10;49.90;;;;;;2578340;53;21228;-74
2023/03/03 00:29:35;;;;;;;20.48;9.63;;;5.00;49.80;;;;;;2334224;54;20973;-74
2023/03/03 00:32:20;;;;;;;22.70;10.52;;;5.00;49.80;;;;;;2391872;53;20912;-73
2023/03/03 00:34:47;;;;;;;26.23;11.25;;;5.00;49.90;;;;;;2331483;54;21790;-73
2023/03/03 00:37:29;;;;;;;23.77;10.20;;;5.00;49.80;;;;;;2335464;53;21296;-73
2023/03/03 00:41:50;;;;;;;25.00;10.85;;;5.00;49.90;;;;;;2386459;53;21323;-74
2023/03/03 00:46:09;;;;;;;24.10;10.13;;;4.90;49.80;;;;;;2350747;53;21043;-74
2023/03/03 00:48:41;;;;;;;21.80;9.25;;;4.90;50.20;;;;;;2333715;54;21001;-74
2023/03/03 00:51:36;;;;;;;25.35;11.12;;;4.90;50.00;;;;;;2334218;54;21481;-74
2023/03/03 00:54:03;;;;;;;24.73;10.88;;;4.90;50.10;;;;;;2355464;53;21012;-74
2023/03/03 00:56:29;;;;;;;23.83;10.50;;;4.90;50.00;;;;;;2405196;53;21402;-74
2023/03/03 00:58:55;;;;;;;23.40;10.20;;;4.90;50.10;;;;;;2341903;53;21320;-74
2023/03/03 01:01:24;;;;;;;23.20;10.63;;;4.90;50.20;;;;;;2337944;53;20936;-74
2023/03/03 01:03:50;;;;;;;25.08;11.75;;;4.80;50.20;;;;;;2399234;53;20976;-74
2023/03/03 01:06:16;;;;;;;24.90;11.38;;;4.90;50.30;;;;;;2337825;53;21004;-73
2023/03/03 01:08:43;;;;;;;25.20;10.75;;;4.80;50.30;;;;;;2335786;53;21296;-74
2023/03/03 01:11:20;;;;;;;22.35;9.85;;;4.90;50.30;;;;;;2334067;54;20921;-74
2023/03/03 01:13:47;;;;;;;24.95;11.27;;;4.80;50.20;;;;;;2414328;53;20965;-74
2023/03/03 01:16:13;;;;;;;20.58;10.35;;;4.80;50.10;;;;;;2333938;54;21930;-74
2023/03/03 01:18:40;;;;;;;21.83;10.15;;;4.80;50.10;;;;;;2365510;53;21405;-74
2023/03/03 01:21:07;;;;;;;18.05;8.90;;;4.80;50.10;;;;;;2333945;54;20992;-73
2023/03/03 01:23:33;;;;;;;23.00;10.23;;;4.80;50.10;;;;;;2333060;54;21499;-73
2023/03/03 01:26:00;;;;;;;20.20;9.90;;;4.70;50.00;;;;;;2334023;54;20928;-74
2023/03/03 01:28:26;;;;;;;25.30;10.85;;;4.70;50.00;;;;;;2461096;53;21039;-74
2023/03/03 01:30:52;;;;;;;22.15;10.68;;;4.70;49.90;;;;;;2366852;53;21055;-73
2023/03/03 01:33:19;;;;;;;24.08;10.85;;;4.70;50.00;;;;;;2333664;54;20940;-74
2023/03/03 01:35:46;;;;;;;24.67;10.23;;;4.60;49.90;;;;;;2333105;54;21600;-74
2023/03/03 01:38:13;;;;;;;20.30;9.82;;;4.60;49.80;;;;;;2577822;53;21350;-73
2023/03/03 01:40:39;;;;;;;20.50;9.75;;;4.60;49.90;;;;;;2465221;53;20900;-73
2023/03/03 01:43:05;;;;;;;21.08;9.82;;;4.50;49.80;;;;;;2429028;53;20924;-74
2023/03/03 01:47:15;;;;;;;20.60;10.25;;;4.50;49.80;;;;;;2333662;54;21464;-73
2023/03/03 01:50:02;;;;;;;19.15;9.30;;;4.40;50.10;;;;;;2333633;54;20953;-73
2023/03/03 01:52:36;;;;;;;23.55;10.43;;;4.40;49.80;;;;;;2334116;53;21361;-74
2023/03/03 01:55:08;;;;;;;23.33;10.18;;;4.40;49.80;;;;;;2310802;54;20984;-73
2023/03/03 01:57:37;;;;;;;19.02;8.70;;;4.30;49.70;;;;;;2536022;53;21012;-74
2023/03/03 02:00:04;;;;;;;23.48;10.18;;;4.30;49.80;;;;;;2490730;53;20973;-73
2023/03/03 02:02:30;;;;;;;21.67;9.63;;;4.20;49.80;;;;;;2334439;54;20928;-73
2023/03/03 02:04:57;;;;;;;28.73;12.35;;;4.20;49.80;;;;;;2333731;54;20992;-75
2023/03/03 02:07:24;;;;;;;26.95;12.37;;;4.10;49.80;;;;;;2334445;54;20981;-74
2023/03/03 02:09:55;;;;;;;22.35;10.23;;;4.10;49.90;;;;;;2334170;53;21000;-73
2023/03/03 02:12:22;;;;;;;20.48;10.07;;;4.10;50.00;;;;;;2360027;53;21347;-73
2023/03/03 02:14:49;;;;;;;24.30;11.12;;;4.10;50.00;;;;;;2333684;54;21708;-73
2023/03/03 02:17:15;;;;;;;20.55;10.05;;;4.00;49.90;;;;;;2476230;53;21056;-74
2023/03/03 02:22:21;;;;;;;26.48;12.35;;;4.00;50.00;;;;;;2333296;54;20944;-73
2023/03/03 02:24:52;;;;;;;20.35;9.40;;;4.00;50.20;;;;;;2428120;53;21347;-73
2023/03/03 02:27:18;;;;;;;22.13;9.48;;;4.00;49.90;;;;;;2334512;54;21363;-73
2023/03/03 02:29:45;;;;;;;20.25;9.13;;;3.90;49.80;;;;;;2333369;54;20992;-74
2023/03/03 02:32:11;;;;;;;23.10;10.52;;;3.90;49.90;;;;;;2333005;54;20956;-73
2023/03/03 02:34:47;;;;;;;22.70;10.52;;;3.90;49.90;;;;;;2333016;54;21470;-73
2023/03/03 02:37:14;;;;;;;26.02;11.07;;;3.90;50.00;;;;;;2333344;54;20996;-73
2023/03/03 02:39:40;;;;;;;31.92;13.68;;;3.80;49.80;;;;;;2339366;53;21711;-73
2023/03/03 02:42:17;;;;;;;23.12;10.95;;;3.80;49.90;;;;;;2349217;53;21001;-73
2023/03/03 02:44:43;;;;;;;31.80;12.20;;;3.70;49.90;;;;;;2332598;54;21016;-73
2023/03/03 02:47:09;;;;;;;24.83;10.88;;;3.70;49.90;;;;;;2577497;53;20917;-73
2023/03/03 02:49:36;;;;;;;19.95;9.50;;;3.70;50.00;;;;;;2333201;54;20955;-73
2023/03/03 02:52:04;;;;;;;24.40;10.50;;;3.60;49.90;;;;;;2339224;53;21874;-73
2023/03/03 02:54:30;;;;;;;37.53;15.95;;;3.60;49.90;;;;;;2333238;54;21056;-73
2023/03/03 02:56:58;;;;;;;27.75;12.10;;;3.60;50.00;;;;;;2332792;54;21256;-73
2023/03/03 02:59:24;;;;;;;34.55;14.60;;;3.60;50.00;;;;;;2333414;54;21562;-74
2023/03/03 03:01:50;;;;;;;33.63;15.00;;;3.60;50.00;;;;;;2570209;53;21099;-73
2023/03/03 03:07:44;;;;;;;26.10;11.27;;;3.50;50.10;;;;;;2314860;57;21008;-71
2023/03/03 03:10:10;;;;;;;24.23;10.75;;;3.50;49.90;;;;;;2330271;53;20948;-73
2023/03/03 03:12:37;;;;;;;30.62;12.35;;;3.50;50.00;;;;;;2332386;54;21442;-73
2023/03/03 03:15:03;;;;;;;23.65;10.23;;;3.40;49.90;;;;;;2332819;54;20945;-73
2023/03/03 03:17:30;;;;;;;27.20;12.13;;;3.40;50.00;;;;;;2333040;54;21007;-73
2023/03/03 03:19:56;;;;;;;23.42;9.98;;;3.40;50.00;;;;;;2332592;54;21512;-73
2023/03/03 03:22:22;;;;;;;27.55;12.25;;;3.30;49.90;;;;;;2333143;54;21429;-73
2023/03/03 03:24:49;;;;;;;24.48;10.30;;;3.30;50.00;;;;;;2563452;53;20937;-73
2023/03/03 03:27:15;;;;;;;22.70;10.30;;;3.30;50.00;;;;;;2333093;54;20948;-73
2023/03/03 03:29:41;;;;;;;26.98;11.75;;;3.30;50.00;;;;;;2439169;53;20936;-74
2023/03/03 03:32:08;;;;;;;20.92;9.57;;;3.20;50.00;;;;;;2344465;53;20976;-73
2023/03/03 03:34:34;;;;;;;21.77;9.07;;;3.20;50.00;;;;;;2334426;54;20940;-73
2023/03/03 03:37:00;;;;;;;23.85;11.00;;;3.20;50.00;;;;;;2396186;53;20916;-74
2023/03/03 03:39:27;;;;;;;27.52;11.52;;;3.20;50.10;;;;;;2334479;54;20917;-74
2023/03/03 03:41:53;;;;;;;24.85;11.00;;;3.20;50.10;;;;;;2334159;54;21040;-74
2023/03/03 03:44:19;;;;;;;24.63;10.27;;;3.10;50.00;;;;;;2341449;53;20921;-74
2023/03/03 03:46:45;;;;;;;24.80;10.90;;;3.10;50.00;;;;;;2334295;54;21540;-73
2023/03/03 03:49:12;;;;;;;22.25;9.60;;;3.10;50.00;;;;;;2579203;53;21379;-74
2023/03/03 03:51:40;;;;;;;24.02;11.10;;;3.10;50.10;;;;;;2334341;54;20937;-74
2023/03/03 03:54:07;;;;;;;20.35;10.27;;;3.10;50.10;;;;;;2333842;54;20956;-74
2023/03/03 03:56:33;;;;;;;24.15;11.15;;;3.00;50.10;;;;;;2337382;53;20968;-74
2023/03/03 03:58:59;;;;;;;21.62;9.85;;;3.00;50.10;;;;;;2578351;53;21111;-73
2023/03/03 04:01:26;;;;;;;27.10;10.13;;;3.00;50.10;;;;;;2334213;54;20957;-74
2023/03/03 04:03:52;;;;;;;18.60;8.52;;;3.00;50.20;;;;;;2333030;54;20959;-74
2023/03/03 04:06:18;;;;;;;20.67;9.10;;;3.00;50.20;;;;;;2336064;53;21069;-73
2023/03/03 04:08:44;;;;;;;25.45;11.85;;;3.00;50.20;;;;;;2332275;54;20928;-73
2023/03/03 04:11:11;;;;;;;26.35;11.65;;;3.00;50.10;;;;;;2334369;53;21322;-73
2023/03/03 04:13:37;;;;;;;23.92;9.90;;;2.90;50.10;;;;;;2332787;54;21441;-73
2023/03/03 04:16:03;;;;;;;22.00;9.98;;;2.90;50.10;;;;;;2455499;53;21702;-73
2023/03/03 04:18:29;;;;;;;21.42;9.80;;;2.90;50.10;;;;;;2411511;53;20920;-74
2023/03/03 04:20:56;;;;;;;20.45;9.18;;;2.90;50.10;;;;;;2332279;54;20936;-74
2023/03/03 04:23:22;;;;;;;25.98;10.18;;;2.90;50.10;;;;;;2525702;53;20944;-74
2023/03/03 04:25:48;;;;;;;21.70;9.27;;;2.80;50.10;;;;;;2332635;54;21308;-72
2023/03/03 04:28:15;;;;;;;26.05;11.32;;;2.80;50.10;;;;;;2332110;54;20965;-73
2023/03/03 04:30:41;;;;;;;23.27;10.77;;;2.80;50.20;;;;;;2331379;54;21004;-72
2023/03/03 04:33:07;;;;;;;24.25;10.25;;;2.80;50.30;;;;;;2383624;53;21319;-73
2023/03/03 04:35:34;;;;;;;20.05;9.65;;;2.70;50.90;;;;;;2391091;53;21509;-73
2023/03/03 04:38:00;;;;;;;22.37;10.50;;;2.70;50.40;;;;;;2317849;54;20936;-73
2023/03/03 04:40:26;;;;;;;25.98;11.85;;;2.70;50.40;;;;;;2317880;54;21464;-73
2023/03/03 04:42:53;;;;;;;24.90;11.68;;;2.70;50.50;;;;;;2351311;53;20957;-74
2023/03/03 04:45:19;;;;;;;23.50;11.68;;;2.70;50.60;;;;;;2318106;54;20941;-74
2023/03/03 04:47:45;;;;;;;22.80;10.25;;;2.70;50.70;;;;;;2321301;53;20968;-74
2023/03/03 04:50:12;;;;;;;21.20;10.23;;;2.80;50.80;;;;;;2328404;53;20988;-73
2023/03/03 04:52:38;;;;;;;26.58;11.82;;;2.80;50.90;;;;;;2319388;54;21232;-73
2023/03/03 04:55:05;;;;;;;29.48;12.10;;;2.80;51.00;;;;;;2319485;54;20929;-73
2023/03/03 04:57:31;;;;;;;26.42;11.75;;;2.80;51.10;;;;;;2425083;53;21241;-72
2023/03/03 04:59:57;;;;;;;27.23;12.07;;;2.80;51.20;;;;;;2318920;53;21469;-73
2023/03/03 05:02:24;;;;;;;24.02;10.48;;;2.90;51.30;;;;;;2382760;53;21542;-74
2023/03/03 05:04:50;;;;;;;25.70;11.40;;;2.90;51.30;;;;;;2320535;53;20924;-75
2023/03/03 05:07:18;;;;;;;21.90;9.70;;;3.00;51.40;;;;;;2559601;53;20999;-74
2023/03/03 05:09:44;;;;;;;21.62;9.85;;;3.00;51.40;;;;;;2316645;54;20964;-73
2023/03/03 05:12:10;;;;;;;28.08;11.18;;;3.00;51.50;;;;;;2317350;54;20980;-74
2023/03/03 05:14:36;;;;;;;27.77;11.98;;;3.10;51.50;;;;;;2316567;54;20964;-74
2023/03/03 05:17:03;;;;;;;30.02;12.63;;;3.10;51.60;;;;;;2316262;54;20917;-74
2023/03/03 05:19:29;;;;;;;22.35;11.07;;;3.20;51.70;;;;;;2453975;53;20999;-74
2023/03/03 05:21:56;;;;;;;27.92;12.13;;;3.20;51.80;;;;;;2367380;53;21020;-74
2023/03/03 05:24:22;;;;;;;30.12;13.25;;;3.30;51.80;;;;;;2316622;54;20984;-74
2023/03/03 05:26:48;;;;;;;26.70;11.63;;;3.30;51.80;;;;;;2323008;53;21004;-73
2023/03/03 05:29:15;;;;;;;28.50;12.68;;;3.40;51.90;;;;;;2314933;54;20965;-74
2023/03/03 05:31:41;;;;;;;28.87;13.30;;;3.40;51.90;;;;;;2414443;53;20972;-74
2023/03/03 05:34:10;;;;;;;24.25;12.07;;;3.50;52.00;;;;;;2386740;53;20992;-74
2023/03/03 05:36:36;;;;;;;27.27;12.48;;;3.50;52.00;;;;;;2300663;54;32516;-74
2023/03/03 05:39:02;;;;;;;32.38;14.05;;;3.60;52.10;;;;;;2289546;55;21003;-74
2023/03/03 05:41:29;;;;;;;31.37;14.85;;;3.60;52.10;;;;;;2318335;54;21918;-74
2023/03/03 05:43:55;;;;;;;25.95;12.85;;;3.70;52.20;;;;;;2289572;55;20927;-74
2023/03/03 05:46:21;;;;;;;29.70;13.85;;;3.70;52.10;;;;;;2287744;54;20971;-74
2023/03/03 05:48:47;;;;;;;28.58;14.18;;;3.80;52.80;;;;;;2286357;55;21692;-74
2023/03/03 05:51:14;;;;;;;24.08;12.07;;;3.80;52.20;;;;;;2286323;54;20943;-74
2023/03/03 05:53:40;;;;;;;23.73;11.68;;;3.90;52.30;;;;;;2294902;54;21002;-74
2023/03/03 05:56:06;;;;;;;28.87;13.05;;;3.90;52.20;;;;;;2288011;55;21557;-73
2023/03/03 05:58:32;;;;;;;27.15;12.63;;;4.00;52.30;;;;;;2287754;55;21627;-74
2023/03/03 06:00:59;;;;;;;25.05;12.50;;;4.00;52.30;;;;;;2327899;54;21513;-73
2023/03/03 06:03:25;;;;;;;22.60;11.65;;;4.10;52.30;;;;;;2305164;54;20944;-74
2023/03/03 06:05:52;;;;;;;24.80;11.07;;;4.20;52.40;;;;;;2287525;55;21972;-74
2023/03/03 06:08:18;;;;;;;26.00;12.30;;;4.10;52.30;;;;;;2286674;54;21330;-74
2023/03/03 06:10:44;;;;;;;28.62;12.85;;;4.20;52.30;;;;;;2353052;54;20927;-73
2023/03/03 06:13:10;;;;;;;25.40;11.90;;;4.30;52.30;;;;;;2287120;55;21617;-74
2023/03/03 06:15:37;;;;;;;31.50;14.98;;;4.30;52.30;;;;;;2325845;54;21358;-74
2023/03/03 06:18:03;;;;;;;32.92;15.05;;;4.30;52.30;;;;;;2287514;54;21691;-74
2023/03/03 06:20:29;;;;;;;32.10;15.20;;;4.30;52.40;;;;;;2287995;54;21429;-74
2023/03/03 06:22:55;;;;;;;24.17;12.20;;;4.40;52.40;;;;;;2288224;54;21426;-74
2023/03/03 06:25:22;;;;;;;24.52;11.77;;;4.40;52.50;;;;;;2287909;55;20939;-74
2023/03/03 06:27:48;;;;;;;28.98;13.62;;;4.50;52.50;;;;;;2303120;54;21394;-73
2023/03/03 06:30:15;;;;;;;19.98;11.00;;;4.50;52.40;;;;;;2336817;54;21444;-74
2023/03/03 06:32:41;;;;;;;22.85;11.15;;;4.60;52.50;;;;;;2305785;55;20933;-74
2023/03/03 06:35:07;;;;;;;23.45;10.82;;;4.60;52.50;;;;;;2358609;54;20945;-74
2023/03/03 06:37:34;;;;;;;18.55;9.32;;;4.60;52.50;;;;;;2305122;54;21251;-74
2023/03/03 06:40:00;;;;;;;22.08;10.55;;;4.60;52.50;;;;;;2305220;54;20946;-74
2023/03/03 06:42:26;;;;;;;22.05;10.80;;;4.70;52.50;;;;;;2305455;55;21547;-74
2023/03/03 06:44:52;;;;;;;19.80;10.10;;;4.70;52.50;;;;;;2305661;54;21656;-74
2023/03/03 06:47:19;;;;;;;20.83;10.25;;;4.70;52.50;;;;;;2410646;54;20927;-74
2023/03/03 06:49:45;;;;;;;21.80;10.68;;;4.80;52.50;;;;;;2316307;54;20947;-73
2023/03/03 06:52:13;;;;;;;22.75;11.23;;;4.80;52.50;;;;;;2304755;55;20935;-74
2023/03/03 06:54:39;;;;;;;20.40;10.02;;;4.90;52.50;;;;;;2385804;54;21015;-74
2023/03/03 06:57:17;;;;;;;20.83;10.10;;;4.90;52.50;;;;;;2306816;55;20986;-74
2023/03/03 06:59:43;;;;;;;22.60;11.00;;;4.90;52.60;;;;;;2306815;54;20949;-74
2023/03/03 07:02:15;;;;;;;22.30;10.63;;;4.90;52.40;;;;;;2302770;54;21019;-73
2023/03/03 07:04:41;;;;;;;24.35;11.45;;;4.90;52.50;;;;;;2342221;54;21998;-74
2023/03/03 07:07:19;;;;;;;21.58;10.43;;;5.00;52.50;;;;;;2301325;54;20978;-73
2023/03/03 07:09:50;;;;;;;24.85;12.20;;;5.00;52.50;;;;;;2334454;54;20970;-74
2023/03/03 07:12:21;;;;;;;21.80;11.00;;;5.00;52.50;;;;;;2304821;55;21003;-75
2023/03/03 07:14:54;;;;;;;22.87;11.85;;;5.10;52.60;;;;;;2308209;54;20961;-74
2023/03/03 07:17:22;;;;;;;23.30;11.12;;;5.10;52.50;;;;;;2364700;54;20976;-75
2023/03/03 07:19:48;;;;;;;27.75;12.57;;;5.10;52.50;;;;;;2305123;54;21521;-74
2023/03/03 07:22:23;;;;;;;22.13;10.98;;;5.10;52.50;;;;;;2486674;54;20959;-71
2023/03/03 07:24:59;;;;;;;25.12;11.75;;;5.10;52.70;;;;;;2305628;54;21452;-75
2023/03/03 07:27:29;;;;;;;24.58;11.73;;;5.20;52.70;;;;;;2304710;55;21345;-72
2023/03/03 07:30:23;;;;;;;25.37;10.85;;;5.20;52.70;;;;;;2305264;54;20943;-73
2023/03/03 07:32:49;;;;;;;24.58;11.02;;;5.20;52.80;;;;;;2305005;55;20974;-77
2023/03/03 07:35:58;;;;;;;22.60;10.98;;;5.20;52.60;;;;;;2335601;54;21102;-75
2023/03/03 07:38:59;;;;;;;20.85;10.18;;;5.30;53.00;;;;;;2393244;54;21587;-68
2023/03/03 07:41:25;;;;;;;20.12;10.23;;;5.30;52.90;;;;;;2284333;55;21050;-72
2023/03/03 07:43:53;;;;;;;19.50;9.70;;;5.30;52.60;;;;;;2304390;55;20970;-72
2023/03/03 07:47:23;;;;;;;20.45;9.73;;;5.40;52.70;;;;;;2308423;54;20998;-75
2023/03/03 07:49:50;;;;;;;18.20;8.63;;;5.40;53.10;;;;;;2384402;54;20947;-76
2023/03/03 07:52:36;;;;;;;19.12;8.50;;;5.40;52.70;;;;;;2303916;54;21460;-69
2023/03/03 07:55:29;;;;;;;21.35;10.30;;;5.50;52.90;;;;;;2308406;54;21006;-75
2023/03/03 07:57:56;;;;;;;;;;;5.50;53.00;;;;;;2304878;54;21078;-75
2023/03/03 08:04:49;;;;;;;22.30;10.75;;;5.60;53.20;;;;;;2394695;54;20947;-75
2023/03/03 08:07:16;;;;;;;25.75;12.50;;;5.60;52.80;;;;;;2303947;55;20990;-75
2023/03/03 08:09:55;;;;;;;23.50;12.25;;;5.70;53.00;;;;;;2308593;54;21014;-74
2023/03/03 08:15:01;;;;;;;25.08;12.32;;;5.70;53.10;;;;;;2419671;54;21448;-76
2023/03/03 08:17:34;;;;;;;22.20;10.77;;;5.80;53.10;;;;;;2306212;54;20966;-75
2023/03/03 08:20:00;;;;;;;19.80;10.15;;;5.80;52.90;;;;;;2305333;55;20958;-76
2023/03/03 08:22:32;;;;;;;19.00;9.63;;;5.90;53.00;;;;;;2305664;54;20994;-74
2023/03/03 08:24:58;;;;;;;21.85;10.73;;;5.90;53.00;;;;;;2305736;54;21046;-76
2023/03/03 08:27:24;;;;;;;19.55;10.40;;;6.00;53.00;;;;;;2355542;54;20893;-75
2023/03/03 08:29:50;;;;;;;21.90;10.75;;;6.00;53.00;;;;;;2311618;54;21483;-74
2023/03/03 08:32:17;;;;;;;22.13;10.52;;;6.00;53.00;;;;;;2306767;54;20955;-74
2023/03/03 08:34:43;;;;;;;31.73;16.58;;;6.10;53.10;;;;;;2402564;54;21006;-74
2023/03/03 08:37:09;;;;;;;27.90;14.30;;;6.10;53.10;;;;;;2326248;54;20943;-75
2023/03/03 08:39:35;;;;;;;24.83;12.75;;;6.20;53.10;;;;;;2306730;54;20962;-76
2023/03/03 08:42:02;;;;;;;27.92;14.90;;;6.20;53.10;;;;;;2305500;54;21530;-76
2023/03/03 08:44:28;;;;;;;28.17;14.05;;;6.30;53.20;;;;;;2305761;55;20954;-74
2023/03/03 08:46:54;;;;;;;26.87;14.40;;;6.30;53.20;;;;;;2301997;54;21357;-75
2023/03/03 08:49:20;;;;;;;25.27;13.05;;;6.30;53.20;;;;;;2305338;55;20982;-74
2023/03/03 08:51:47;;;;;;;24.33;12.70;;;6.40;53.20;;;;;;2306536;54;21679;-77
2023/03/03 08:54:13;;;;;;;26.67;14.00;;;6.40;53.20;;;;;;2302764;54;20962;-74
2023/03/03 08:56:39;;;;;;;23.15;12.65;;;6.50;53.40;;;;;;2304600;55;21287;-75
2023/03/03 08:59:05;;;;;;;22.20;11.75;;;6.50;53.30;;;;;;2305476;54;21003;-76
2023/03/03 09:01:32;;;;;;;23.10;11.48;;;6.60;53.40;;;;;;2314782;54;20931;-74
2023/03/03 09:03:58;;;;;;;24.27;11.60;;;6.60;53.40;;;;;;2321310;54;20983;-75
2023/03/03 09:06:24;;;;;;;24.50;12.07;;;6.70;53.40;;;;;;2538051;54;20934;-73
2023/03/03 09:08:51;;;;;;;23.45;12.25;;;6.60;53.30;;;;;;2304847;55;20954;-75
2023/03/03 09:11:24;;;;;;;24.02;11.23;;;6.80;53.40;;;;;;2305438;55;20991;-75
2023/03/03 09:13:52;;;;;;;;;;;6.90;53.40;;;;;;2309167;55;20955;-75
2023/03/03 09:16:20;;;;;;;25.48;11.15;;;6.90;53.50;;;;;;2305972;54;20064;-75
2023/03/03 09:18:46;;;;;;;26.45;12.95;;;7.00;53.20;;;;;;2316245;54;21367;-74
2023/03/03 09:21:33;;;;;;;25.95;11.77;;;7.00;53.20;;;;;;2305657;55;20940;-75
2023/03/03 09:23:59;;;;;;;19.30;9.68;;;7.10;53.40;;;;;;2354788;53;20966;-76
2023/03/03 09:26:45;;;;;;;25.75;12.63;;;7.10;53.30;;;;;;2470408;54;21562;-75
2023/03/03 09:29:30;;;;;;;24.40;12.05;;;7.20;53.50;;;;;;2543978;54;21466;-74
2023/03/03 09:31:58;;;;;;;22.48;11.02;;;7.20;53.50;;;;;;2306802;54;20946;-75
2023/03/03 09:34:40;;;;;;;23.70;11.63;;;7.30;53.40;;;;;;2338253;54;20955;-76
2023/03/03 09:37:31;;;;;;;20.33;10.50;;;7.40;53.50;;;;;;2381612;54;21014;-74
2023/03/03 09:39:57;;;;;;;19.37;10.23;;;7.40;53.50;;;;;;2305959;55;21023;-76
2023/03/03 09:43:08;;;;;;;22.67;11.05;;;7.50;53.40;;;;;;2306181;54;21308;-76
2023/03/03 09:45:56;;;;;;;20.40;10.52;;;7.60;53.60;;;;;;2324828;54;21023;-76
2023/03/03 09:49:56;;;;;;;22.55;11.48;;;7.60;53.50;;;;;;2305268;54;22062;-75
2023/03/03 09:53:57;;;;;;;21.55;10.43;;;7.70;53.50;;;;;;2309414;54;20979;-76
2023/03/03 09:56:35;;;;;;;18.67;9.85;;;7.80;53.70;;;;;;2352158;54;21412;-75
2023/03/03 10:06:36;;;;;;;22.05;11.43;;;7.90;53.40;;;;;;2322646;54;21363;-75
2023/03/03 10:12:30;;;;;;;18.98;8.68;;;7.90;53.60;;;;;;2341426;54;21074;-74
2023/03/03 10:15:14;;;;;;;16.25;7.78;;;8.20;53.40;;;;;;2307190;54;21057;-74
2023/03/03 10:18:06;;;;;;;18.75;9.32;;;8.30;53.20;;;;;;2309649;54;21414;-75
2023/03/03 10:21:01;;;;;;;23.37;11.67;;;8.40;53.30;;;;;;2305725;54;20927;-75
2023/03/03 10:23:43;;;;;;;17.60;9.90;;;8.40;53.40;;;;;;2307320;54;21363;-76
2023/03/03 10:26:37;;;;;;;21.42;11.38;;;8.50;53.50;;;;;;2367909;54;21218;-76
2023/03/03 10:29:32;;;;;;;21.62;11.35;;;8.60;53.60;;;;;;2306780;54;21000;-75
2023/03/03 10:36:13;;;;;;;22.13;12.07;;;8.60;53.50;;;;;;2543175;54;21093;-75
2023/03/03 10:38:54;;;;;;;21.05;10.35;;;8.80;53.40;;;;;;2339075;54;20935;-76
2023/03/03 10:41:38;;;;;;;23.00;11.88;;;8.90;53.00;;;;;;2330184;54;20927;-75
2023/03/03 10:46:51;;;;;;;21.77;11.77;;;8.90;53.00;;;;;;2307637;54;21461;-74
2023/03/03 10:53:02;;;;;;;19.75;10.48;;;9.00;53.20;;;;;;2514291;54;21520;-74
2023/03/03 10:55:51;;;;;;;22.33;11.40;;;9.10;53.00;;;;;;2361725;54;21364;-76
2023/03/03 11:00:03;;;;;;;20.55;11.70;;;9.20;52.80;;;;;;2305548;54;20977;-75
2023/03/03 11:02:48;;;;;;;21.35;10.23;;;9.30;52.90;;;;;;2309641;54;20955;-76
2023/03/03 11:06:45;;;;;;;21.92;11.77;;;9.40;52.90;;;;;;2500349;53;20973;-75
2023/03/03 11:11:03;;;;;;;18.95;10.40;;;9.40;52.90;;;;;;2308808;54;20915;-75
2023/03/03 11:20:25;;;;;;;20.65;11.30;;;9.50;52.80;;;;;;2305466;54;20991;-73
2023/03/03 11:26:32;;;;;;;21.73;10.80;;;9.60;52.80;;;;;;2305231;54;21065;-75
2023/03/03 11:31:45;;;;;;;21.92;11.48;;;9.80;52.50;;;;;;2305722;55;21019;-76
2023/03/03 11:34:35;;;;;;;23.05;11.43;;;9.80;52.40;;;;;;2463741;54;21423;-74
2023/03/03 11:37:25;;;;;;;24.40;13.32;;;9.90;52.40;;;;;;2354659;54;20966;-75
2023/03/03 11:39:52;;;;;;;24.80;14.18;;;9.90;52.40;;;;;;2471568;54;20958;-75
2023/03/03 11:42:49;;;;;;;24.83;14.10;;;9.90;52.30;;;;;;2305834;54;20939;-75
2023/03/03 11:45:21;;;;;;;24.30;13.57;;;10.00;51.40;;;;;;2307021;54;21472;-76
2023/03/03 11:50:28;;;;;;;25.48;14.02;;;10.00;51.50;;;;;;2301985;54;20978;-76
2023/03/03 11:55:54;;;;;;;26.12;14.50;;;10.20;51.70;;;;;;2304480;54;21383;-75
2023/03/03 11:58:44;;;;;;;24.85;13.48;;;10.20;51.30;;;;;;2353673;54;21336;-76
2023/03/03 12:01:22;;;;;;;29.20;14.45;;;10.40;51.30;;;;;;2319316;54;20959;-75
2023/03/03 12:04:54;;;;;;;26.60;14.82;;;10.30;51.30;;;;;;2316652;54;21428;-75
2023/03/03 12:09:02;;;;;;;23.95;13.77;;;10.40;51.20;;;;;;2307541;54;21011;-74
2023/03/03 12:11:56;;;;;;;21.95;12.60;;;10.50;51.20;;;;;;2306422;54;20957;-76
2023/03/03 12:14:37;;;;;;;26.15;14.32;;;10.50;51.10;;;;;;2447992;53;20986;-76
2023/03/03 12:19:46;;;;;;;27.48;15.60;;;10.50;51.10;;;;;;2307514;54;21800;-73
2023/03/03 12:26:50;;;;;;;26.17;14.25;;;10.70;51.30;;;;;;2363564;54;21027;-75
2023/03/03 12:30:06;;;;;;;24.15;12.70;;;10.70;51.10;;;;;;2305716;54;20963;-74
2023/03/03 12:34:13;;;;;;;24.63;13.65;;;10.80;51.10;;;;;;2304655;54;21008;-74
2023/03/03 12:41:50;;;;;;;28.33;14.85;;;10.80;51.10;;;;;;2307040;54;20937;-74
2023/03/03 12:44:42;;;;;;;26.40;13.23;;;11.00;51.20;;;;;;2444365;54;20959;-74
2023/03/03 12:47:21;;;;;;;21.77;12.05;;;11.00;51.10;;;;;;2306822;54;21060;-72
2023/03/03 12:50:24;;;;;;;26.58;14.93;;;11.00;51.10;;;;;;2305494;54;20938;-73
2023/03/03 12:56:01;;;;;;;27.98;16.10;;;11.10;51.20;;;;;;2525758;53;22274;-72
2023/03/03 13:03:41;;;;;;;24.00;13.80;;;11.20;51.20;;;;;;2303461;54;21023;-73
2023/03/03 13:06:31;;;;;;;24.25;12.80;;;11.50;51.40;;;;;;2309098;54;21369;-70
2023/03/03 13:09:27;;;;;;;27.10;16.10;;;11.60;51.20;;;;;;2324163;54;21114;-70
2023/03/03 13:12:19;;;;;;;30.90;15.68;;;11.60;51.00;;;;;;2307793;54;20965;-70
2023/03/03 13:15:09;;;;;;;;;;;11.60;50.70;;;;;;2306083;54;21433;-72
2023/03/03 13:21:39;;;;;;;29.35;16.92;;;11.70;50.80;;;;;;2502942;53;24081;-74
2023/03/03 13:24:23;;;;;;;26.52;15.45;;;11.80;50.30;;;;;;2300192;53;21493;-71
2023/03/03 13:26:56;;;;;;;31.48;16.83;;;11.80;50.30;;;;;;2302977;53;20970;-72
2023/03/03 13:31:11;;;;;;;32.53;17.17;;;11.80;50.30;;;;;;2295579;54;21103;-72
2023/03/03 13:33:37;;;;;;;29.15;16.92;;;11.90;50.00;;;;;;2314823;54;21042;-71
2023/03/03 13:36:06;;;;;;;28.02;15.32;;;11.90;50.10;;;;;;2284234;53;21549;-74
2023/03/03 13:38:39;;;;;;;27.62;16.65;;;11.90;49.90;;;;;;2273842;55;20945;-72
2023/03/03 13:43:01;;;;;;;28.00;17.05;;;11.90;49.90;;;;;;2316984;53;21422;-71
2023/03/03 13:45:50;;;;;;;25.45;13.55;;;11.90;49.80;;;;;;2341843;54;21027;-71
2023/03/03 13:48:45;;;;;;;23.05;13.05;;;11.90;49.80;;;;;;2342266;54;20936;-74
2023/03/03 13:51:59;;;;;;;25.75;14.75;;;11.90;49.90;;;;;;2341934;54;21008;-72
2023/03/03 13:56:21;;;;;;;32.92;17.90;;;11.90;50.10;;;;;;2340229;53;22060;-73
2023/03/03 14:03:22;;;;;;;27.73;15.05;;;12.00;50.50;;;;;;2330815;54;20930;-72
2023/03/03 14:05:50;;;;;;;27.23;15.65;;;12.10;50.40;;;;;;2353891;53;20918;-73
2023/03/03 14:08:53;;;;;;;27.00;15.07;;;12.20;50.30;;;;;;2354885;53;21010;-71
2023/03/03 14:11:32;;;;;;;33.55;17.48;;;12.20;49.90;;;;;;2341587;54;20929;-72
2023/03/03 14:14:14;;;;;;;29.40;15.68;;;12.20;49.90;;;;;;2369011;53;20926;-73
2023/03/03 14:29:50;;;;;;;30.20;16.33;;;12.20;50.00;;;;;;2369559;53;20943;-73
2023/03/03 14:32:24;;;;;;;20.65;11.43;;;12.20;50.00;;;;;;2369299;53;20942;-73
2023/03/03 14:35:01;;;;;;;25.70;14.38;;;12.50;50.10;;;;;;2353013;53;21066;-71
2023/03/03 14:37:46;;;;;;;29.23;15.65;;;12.50;50.10;;;;;;2362065;53;20895;-73
2023/03/03 14:40:20;;;;;;;27.10;15.43;;;12.50;49.80;;;;;;2359251;53;20926;-75
2023/03/03 14:42:56;;;;;;;26.75;16.08;;;12.50;49.90;;;;;;2359097;53;21924;-73
2023/03/03 14:45:37;;;;;;;29.37;17.40;;;12.50;49.80;;;;;;2400982;53;21023;-72
2023/03/03 14:48:24;;;;;;;27.95;16.70;;;12.60;49.80;;;;;;2370120;53;20942;-73
2023/03/03 14:50:55;;;;;;;28.38;16.60;;;12.60;49.70;;;;;;2367799;53;20962;-74
2023/03/03 14:53:33;;;;;;;29.60;18.12;;;12.60;49.80;;;;;;2369218;53;20905;-72
2023/03/03 14:59:31;;;;;;;28.17;16.10;;;12.60;49.70;;;;;;2349536;53;21026;-72
2023/03/03 15:02:19;;;;;;;20.67;11.63;;;12.70;49.80;;;;;;2367567;53;20911;-72
2023/03/03 15:04:46;;;;;;;27.92;15.63;;;12.80;49.80;;;;;;2357185;53;20915;-73